createdAt,value
2022-10-30T00:00:34.328Z,14.48
2022-10-30T00:03:06.568Z,12.70
2022-10-30T00:05:45.098Z,15.35
2022-10-30T00:08:20.947Z,12.48
2022-10-30T00:10:54.211Z,12.85
2022-10-30T00:13:27.258Z,11.32
2022-10-30T00:15:59.610Z,12.98
2022-10-30T00:18:39.422Z,12.93
2022-10-30T00:21:14.651Z,18.67
2022-10-30T00:23:51.923Z,12.48
2022-10-30T00:26:25.571Z,12.15
2022-10-30T00:28:58.971Z,13.48
2022-10-30T00:31:30.964Z,13.00
2022-10-30T00:34:02.929Z,13.40
2022-10-30T00:36:34.818Z,13.13
2022-10-30T00:39:06.813Z,13.73
2022-10-30T00:41:41.265Z,15.50
2022-10-30T00:44:36.883Z,12.98
2022-10-30T00:47:40.041Z,11.00
2022-10-30T00:50:37.939Z,13.05
2022-10-30T00:53:16.008Z,16.75
2022-10-30T00:55:56.414Z,10.70
2022-10-30T00:58:39.383Z,13.82
2022-10-30T01:01:19.775Z,15.07
2022-10-30T01:03:58.430Z,18.23
2022-10-30T01:06:34.018Z,11.60
2022-10-30T01:09:08.542Z,11.85
2022-10-30T01:11:41.182Z,17.85
2022-10-30T01:14:17.168Z,18.48
2022-10-30T01:17:13.515Z,15.18
2022-10-30T01:20:25.473Z,15.80
2022-10-30T01:23:29.347Z,12.00
2022-10-30T01:26:15.522Z,18.40
2022-10-30T01:29:14.449Z,12.80
2022-10-30T01:32:41.455Z,12.70
2022-10-30T01:35:44.721Z,12.70
2022-10-30T01:38:39.574Z,12.57
2022-10-30T01:41:23.238Z,16.80
2022-10-30T01:44:02.248Z,18.33
2022-10-30T01:46:55.425Z,19.50
2022-10-30T01:50:16.852Z,12.88
2022-10-30T01:53:14.738Z,14.65
2022-10-30T01:56:29.014Z,11.45
2022-10-30T01:59:47.959Z,11.98
2022-10-30T02:02:25.986Z,10.77
2022-10-30T02:04:59.241Z,14.05
2022-10-30T02:07:31.598Z,19.48
2022-10-30T02:10:04.905Z,12.38
2022-10-30T02:12:38.900Z,14.27
2022-10-30T02:15:11.730Z,15.95
2022-10-30T02:17:43.970Z,11.50
2022-10-30T02:20:20.481Z,13.90
2022-10-30T02:22:58.006Z,10.80
2022-10-30T02:25:32.013Z,12.35
2022-10-30T02:28:04.214Z,12.75
2022-10-30T02:30:36.299Z,10.85
2022-10-30T02:33:08.473Z,11.52
2022-10-30T02:35:41.036Z,9.32
2022-10-30T02:38:13.120Z,10.85
2022-10-30T02:40:45.159Z,13.40
2022-10-30T02:43:17.177Z,12.85
2022-10-30T02:45:52.527Z,14.23
2022-10-30T02:48:25.546Z,11.68
2022-10-30T02:51:01.565Z,16.00
2022-10-30T02:53:34.773Z,12.10
2022-10-30T02:56:09.342Z,23.63
2022-10-30T02:58:43.790Z,20.42
2022-10-30T03:01:18.500Z,24.45
2022-10-30T03:03:51.033Z,22.58
2022-10-30T03:06:23.212Z,17.48
2022-10-30T03:08:55.233Z,19.35
2022-10-30T03:11:27.366Z,19.55
2022-10-30T03:13:59.455Z,30.00
2022-10-30T03:16:32.071Z,31.23
2022-10-30T03:19:06.712Z,18.38
2022-10-30T03:21:38.822Z,19.10
2022-10-30T03:24:10.738Z,22.00
2022-10-30T03:26:42.747Z,24.70
2022-10-30T03:29:14.632Z,28.70
2022-10-30T03:31:46.560Z,29.05
2022-10-30T03:34:18.452Z,30.60
2022-10-30T03:36:50.419Z,22.10
2022-10-30T03:39:22.497Z,21.17
2022-10-30T03:41:54.485Z,23.88
2022-10-30T03:44:26.437Z,22.52
2022-10-30T03:46:58.614Z,25.05
2022-10-30T03:49:30.581Z,21.50
2022-10-30T03:52:02.654Z,31.83
2022-10-30T03:54:34.747Z,19.25
2022-10-30T03:57:06.623Z,16.30
2022-10-30T03:59:38.523Z,20.92
2022-10-30T04:02:10.625Z,21.15
2022-10-30T04:04:42.636Z,19.90
2022-10-30T04:07:15.066Z,22.65
2022-10-30T04:09:46.982Z,20.52
2022-10-30T04:12:19.015Z,16.98
2022-10-30T04:14:50.948Z,16.45
2022-10-30T04:17:24.411Z,16.63
2022-10-30T04:19:56.406Z,9.38
2022-10-30T04:22:28.442Z,12.43
2022-10-30T04:25:00.890Z,12.05
2022-10-30T04:27:42.880Z,18.08
2022-10-30T04:30:17.694Z,15.32
2022-10-30T04:33:12.153Z,21.23
2022-10-30T04:35:44.765Z,17.40
2022-10-30T04:38:19.011Z,21.15
2022-10-30T04:40:51.059Z,14.30
2022-10-30T04:43:23.014Z,17.75
2022-10-30T04:45:55.111Z,18.33
2022-10-30T04:48:27.350Z,14.10
2022-10-30T04:50:59.404Z,14.52
2022-10-30T04:53:31.375Z,10.18
2022-10-30T04:56:03.395Z,14.20
2022-10-30T04:58:36.242Z,13.48
2022-10-30T05:01:08.728Z,19.00
2022-10-30T05:03:40.784Z,15.05
2022-10-30T05:06:15.641Z,14.15
2022-10-30T05:08:55.771Z,12.60
2022-10-30T05:11:28.041Z,9.93
2022-10-30T05:14:00.225Z,11.52
2022-10-30T05:16:32.372Z,14.05
2022-10-30T05:19:04.422Z,14.35
2022-10-30T05:21:36.447Z,13.70
2022-10-30T05:24:08.700Z,11.75
2022-10-30T05:26:40.783Z,12.10
2022-10-30T05:29:13.515Z,11.15
2022-10-30T05:31:45.408Z,8.75
2022-10-30T05:34:17.391Z,17.67
2022-10-30T05:36:49.327Z,12.85
2022-10-30T05:39:21.195Z,15.23
2022-10-30T05:41:53.163Z,12.82
2022-10-30T05:44:40.728Z,11.73
2022-10-30T05:47:17.161Z,16.70
2022-10-30T05:49:49.345Z,13.05
2022-10-30T05:52:21.270Z,12.98
2022-10-30T05:54:53.244Z,13.95
2022-10-30T05:57:27.477Z,11.20
2022-10-30T06:00:00.596Z,11.07
2022-10-30T06:02:33.055Z,8.10
2022-10-30T06:05:05.389Z,9.35
2022-10-30T06:07:37.795Z,8.20
2022-10-30T06:10:09.788Z,7.70
2022-10-30T06:12:41.790Z,11.25
2022-10-30T06:15:13.673Z,9.30
2022-10-30T06:17:45.705Z,10.35
2022-10-30T06:20:19.080Z,11.75
2022-10-30T06:23:03.693Z,11.38
2022-10-30T06:25:40.927Z,9.50
2022-10-30T06:28:14.269Z,7.60
2022-10-30T06:30:46.355Z,8.30
2022-10-30T06:33:18.491Z,11.48
2022-10-30T06:35:50.587Z,12.25
2022-10-30T06:38:22.708Z,9.68
2022-10-30T06:40:54.620Z,11.57
2022-10-30T06:43:26.650Z,13.57
2022-10-30T06:45:58.987Z,9.90
2022-10-30T06:48:31.245Z,17.83
2022-10-30T06:51:03.432Z,12.45
2022-10-30T06:53:35.499Z,8.18
2022-10-30T06:56:08.966Z,11.32
2022-10-30T06:58:40.946Z,9.82
2022-10-30T07:01:14.181Z,9.30
2022-10-30T07:03:46.231Z,12.35
2022-10-30T07:06:18.450Z,9.05
2022-10-30T07:08:50.386Z,11.43
2022-10-30T07:11:22.379Z,8.50
2022-10-30T07:13:54.679Z,14.52
2022-10-30T07:16:56.609Z,10.57
2022-10-30T07:19:29.220Z,9.38
2022-10-30T07:22:02.289Z,12.30
2022-10-30T07:24:34.285Z,11.95
2022-10-30T07:27:06.350Z,11.75
2022-10-30T07:29:38.347Z,9.32
2022-10-30T07:32:12.975Z,10.55
2022-10-30T07:34:44.984Z,10.95
2022-10-30T07:37:17.021Z,11.88
2022-10-30T07:39:48.950Z,10.77
2022-10-30T07:42:21.239Z,9.13
2022-10-30T07:44:53.275Z,11.48
2022-10-30T07:47:25.683Z,12.55
2022-10-30T07:49:57.766Z,10.13
2022-10-30T07:52:32.863Z,13.98
2022-10-30T07:55:06.101Z,9.13
2022-10-30T07:57:40.151Z,10.57
2022-10-30T08:00:14.678Z,9.10
2022-10-30T08:02:51.942Z,10.65
2022-10-30T08:05:29.927Z,12.90
2022-10-30T08:08:02.627Z,11.98
2022-10-30T08:10:35.985Z,7.43
2022-10-30T08:13:25.930Z,7.82
2022-10-30T08:15:58.071Z,8.50
2022-10-30T08:18:30.328Z,18.63
2022-10-30T08:21:02.622Z,10.15
2022-10-30T08:23:34.576Z,10.60
2022-10-30T08:26:06.714Z,12.07
2022-10-30T08:28:38.748Z,7.60
2022-10-30T08:31:10.993Z,8.43
2022-10-30T08:33:43.029Z,9.60
2022-10-30T08:36:14.901Z,7.38
2022-10-30T08:38:47.079Z,10.23
2022-10-30T08:41:19.118Z,9.52
2022-10-30T08:43:51.230Z,8.65
2022-10-30T08:46:23.595Z,12.75
2022-10-30T08:48:56.029Z,13.20
2022-10-30T08:51:28.453Z,7.65
2022-10-30T08:54:04.725Z,8.13
2022-10-30T08:56:47.986Z,11.38
2022-10-30T08:59:21.484Z,12.10
2022-10-30T09:01:54.016Z,8.13
2022-10-30T09:04:26.384Z,9.88
2022-10-30T09:07:01.063Z,10.60
2022-10-30T09:09:33.274Z,11.55
2022-10-30T09:12:05.798Z,10.23
2022-10-30T09:14:38.428Z,9.65
2022-10-30T09:17:10.565Z,8.38
2022-10-30T09:19:42.913Z,11.63
2022-10-30T09:22:15.111Z,14.00
2022-10-30T09:24:47.338Z,11.05
2022-10-30T09:27:19.718Z,6.63
2022-10-30T09:29:57.267Z,9.20
2022-10-30T09:32:29.268Z,8.83
2022-10-30T09:35:02.021Z,7.67
2022-10-30T09:37:36.639Z,8.90
2022-10-30T09:40:11.492Z,9.90
2022-10-30T09:42:55.113Z,6.37
2022-10-30T09:46:05.828Z,15.93
2022-10-30T09:52:13.206Z,5.70
2022-10-30T09:55:29.478Z,7.33
2022-10-30T09:58:42.698Z,10.97
2022-10-30T10:01:58.697Z,8.80
2022-10-30T10:04:52.333Z,7.10
2022-10-30T10:07:40.229Z,8.90
2022-10-30T10:10:35.941Z,5.47
2022-10-30T10:14:08.638Z,7.70
2022-10-30T10:16:59.531Z,14.23
2022-10-30T10:19:40.613Z,6.37
2022-10-30T10:22:26.559Z,8.13
2022-10-30T10:25:15.699Z,10.97
2022-10-30T10:28:06.187Z,10.63
2022-10-30T10:31:49.205Z,12.23
2022-10-30T10:35:18.729Z,8.13
2022-10-30T10:38:35.715Z,9.17
2022-10-30T10:41:37.630Z,8.40
2022-10-30T10:44:50.279Z,7.67
2022-10-30T10:48:07.291Z,8.33
2022-10-30T10:51:04.791Z,9.43
2022-10-30T10:53:57.051Z,8.20
2022-10-30T10:56:39.715Z,5.90
2022-10-30T10:59:23.259Z,7.47
2022-10-30T11:02:08.801Z,4.90
2022-10-30T11:05:12.766Z,7.83
2022-10-30T11:08:21.372Z,6.70
2022-10-30T11:11:06.031Z,7.60
2022-10-30T11:13:40.971Z,8.27
2022-10-30T11:16:48.356Z,10.23
2022-10-30T11:19:33.156Z,9.13
2022-10-30T11:22:25.105Z,10.20
2022-10-30T11:25:26.915Z,10.00
2022-10-30T11:28:06.194Z,7.30
2022-10-30T11:30:43.724Z,5.23
2022-10-30T11:33:23.121Z,8.60
2022-10-30T11:36:14.580Z,6.57
2022-10-30T11:38:55.103Z,6.23
2022-10-30T11:41:28.846Z,7.37
2022-10-30T11:44:03.668Z,9.97
2022-10-30T11:46:37.913Z,9.40
2022-10-30T11:49:30.613Z,6.07
2022-10-30T11:52:25.358Z,8.27
2022-10-30T11:55:15.699Z,12.93
2022-10-30T11:57:57.725Z,8.30
2022-10-30T12:00:33.233Z,5.70
2022-10-30T12:03:30.336Z,8.67
2022-10-30T12:06:23.014Z,12.00
2022-10-30T12:09:21.311Z,8.80
2022-10-30T12:11:54.155Z,6.73
2022-10-30T12:14:27.660Z,5.00
2022-10-30T12:17:00.802Z,6.73
2022-10-30T12:19:32.858Z,13.60
2022-10-30T12:22:08.995Z,8.07
2022-10-30T12:24:44.001Z,5.03
2022-10-30T12:27:50.165Z,7.93
2022-10-30T12:30:34.593Z,8.00
2022-10-30T12:33:24.255Z,10.67
2022-10-30T12:36:20.857Z,4.90
2022-10-30T12:39:03.913Z,6.30
2022-10-30T12:42:01.516Z,8.83
2022-10-30T12:44:53.859Z,8.13
2022-10-30T12:48:09.098Z,7.40
2022-10-30T12:50:57.501Z,9.63
2022-10-30T12:53:58.518Z,6.37
2022-10-30T12:56:44.044Z,7.07
2022-10-30T12:59:45.504Z,5.13
2022-10-30T13:03:14.941Z,5.57
2022-10-30T13:06:27.191Z,4.53
2022-10-30T13:09:28.558Z,8.90
2022-10-30T13:12:14.498Z,8.90
2022-10-30T13:15:01.772Z,7.03
2022-10-30T13:17:56.027Z,6.00
2022-10-30T13:20:31.406Z,5.20
2022-10-30T13:23:12.257Z,8.03
2022-10-30T13:26:03.184Z,10.53
2022-10-30T13:29:07.039Z,7.10
2022-10-30T13:31:55.978Z,6.07
2022-10-30T13:34:41.139Z,6.47
2022-10-30T13:37:34.877Z,8.90
2022-10-30T13:40:46.650Z,7.47
2022-10-30T13:43:41.917Z,5.80
2022-10-30T13:46:53.030Z,6.57
2022-10-30T13:50:15.077Z,7.83
2022-10-30T13:53:14.527Z,9.23
2022-10-30T13:55:51.140Z,9.10
2022-10-30T13:58:33.506Z,9.47
2022-10-30T14:01:17.111Z,7.60
2022-10-30T14:04:18.614Z,8.70
2022-10-30T14:07:16.235Z,6.50
2022-10-30T14:10:16.506Z,8.10
2022-10-30T14:13:16.989Z,6.10
2022-10-30T14:16:02.070Z,8.37
2022-10-30T14:18:46.797Z,7.27
2022-10-30T14:21:55.688Z,5.53
2022-10-30T14:24:30.530Z,7.60
2022-10-30T14:27:37.812Z,9.17
2022-10-30T14:30:20.267Z,8.07
2022-10-30T14:32:53.052Z,10.10
2022-10-30T14:35:39.560Z,8.53
2022-10-30T14:38:11.674Z,6.00
2022-10-30T14:40:54.892Z,8.40
2022-10-30T14:43:59.437Z,7.67
2022-10-30T14:47:21.055Z,6.73
2022-10-30T14:50:34.613Z,6.50
2022-10-30T14:53:28.605Z,6.20
2022-10-30T14:56:42.358Z,7.00
2022-10-30T14:59:19.198Z,9.80
2022-10-30T15:02:32.359Z,7.87
2022-10-30T15:05:45.763Z,9.30
2022-10-30T15:08:42.152Z,7.37
2022-10-30T15:11:40.063Z,6.87
2022-10-30T15:15:01.736Z,5.97
2022-10-30T15:17:51.483Z,7.37
2022-10-30T15:20:31.858Z,11.23
2022-10-30T15:23:22.800Z,6.60
2022-10-30T15:26:08.950Z,11.10
2022-10-30T15:28:52.654Z,7.60
2022-10-30T15:31:27.363Z,13.50
2022-10-30T15:34:00.245Z,13.07
2022-10-30T15:36:41.758Z,12.63
2022-10-30T15:39:16.132Z,11.53
2022-10-30T15:41:55.479Z,9.73
2022-10-30T15:44:33.018Z,11.77
2022-10-30T15:47:17.448Z,9.77
2022-10-30T15:49:55.251Z,7.50
2022-10-30T15:52:30.722Z,7.67
2022-10-30T15:55:08.047Z,8.53
2022-10-30T15:58:06.878Z,7.97
2022-10-30T16:00:57.233Z,8.90
2022-10-30T16:03:31.318Z,9.93
2022-10-30T16:06:06.105Z,10.50
2022-10-30T16:08:48.137Z,6.93
2022-10-30T16:11:22.676Z,9.30
2022-10-30T16:13:56.584Z,7.90
2022-10-30T16:16:31.324Z,10.07
2022-10-30T16:19:05.475Z,8.30
2022-10-30T16:21:38.404Z,7.90
2022-10-30T16:24:10.648Z,8.90
2022-10-30T16:26:43.017Z,8.07
2022-10-30T16:29:18.484Z,9.03
2022-10-30T16:31:56.406Z,7.00
2022-10-30T16:34:36.396Z,7.40
2022-10-30T16:37:18.188Z,7.67
2022-10-30T16:39:55.793Z,7.20
2022-10-30T16:42:30.814Z,8.77
2022-10-30T16:45:19.562Z,7.53
2022-10-30T16:48:20.213Z,7.83
2022-10-30T16:51:02.221Z,9.10
2022-10-30T16:53:35.369Z,7.80
2022-10-30T16:56:21.362Z,7.60
2022-10-30T16:59:12.115Z,7.70
2022-10-30T17:01:58.809Z,7.63
2022-10-30T17:04:52.357Z,9.23
2022-10-30T17:07:39.344Z,7.00
2022-10-30T17:10:42.690Z,10.43
2022-10-30T17:13:34.834Z,9.33
2022-10-30T17:16:24.936Z,8.23
2022-10-30T17:19:19.788Z,8.43
2022-10-30T17:22:20.213Z,9.73
2022-10-30T17:24:53.495Z,9.80
2022-10-30T17:27:47.077Z,10.40
2022-10-30T17:30:34.727Z,8.37
2022-10-30T17:33:36.130Z,15.70
2022-10-30T17:36:09.396Z,13.63
2022-10-30T17:38:42.003Z,13.47
2022-10-30T17:41:16.897Z,10.67
2022-10-30T17:43:54.613Z,10.23
2022-10-30T17:46:27.335Z,9.50
2022-10-30T17:49:00.196Z,10.10
2022-10-30T17:51:32.822Z,13.50
2022-10-30T17:54:12.843Z,10.85
2022-10-30T17:56:45.407Z,11.73
2022-10-30T17:59:17.749Z,10.00
2022-10-30T18:01:50.656Z,10.60
2022-10-30T18:04:23.200Z,12.80
2022-10-30T18:06:55.925Z,8.95
2022-10-30T18:09:28.281Z,8.20
2022-10-30T18:12:00.531Z,10.40
2022-10-30T18:14:33.805Z,7.68
2022-10-30T18:17:06.099Z,9.33
2022-10-30T18:19:39.591Z,12.65
2022-10-30T18:22:11.714Z,11.50
2022-10-30T18:24:44.197Z,10.20
2022-10-30T18:27:16.732Z,9.63
2022-10-30T18:29:49.058Z,10.27
2022-10-30T18:32:21.378Z,8.48
2022-10-30T18:34:53.746Z,9.00
2022-10-30T18:37:33.259Z,9.43
2022-10-30T18:40:06.067Z,12.25
2022-10-30T18:42:38.970Z,10.82
2022-10-30T18:45:19.341Z,11.23
2022-10-30T18:47:56.322Z,9.48
2022-10-30T18:50:30.636Z,10.93
2022-10-30T18:53:04.661Z,8.63
2022-10-30T18:55:45.592Z,8.38
2022-10-30T18:58:18.941Z,7.80
2022-10-30T19:01:10.979Z,10.52
2022-10-30T19:03:49.387Z,13.32
2022-10-30T19:06:25.008Z,10.68
2022-10-30T19:08:59.143Z,8.25
2022-10-30T19:11:32.760Z,8.13
2022-10-30T19:14:14.265Z,9.57
2022-10-30T19:16:53.507Z,11.07
2022-10-30T19:19:26.136Z,8.65
2022-10-30T19:21:58.680Z,13.40
2022-10-30T19:24:34.172Z,15.65
2022-10-30T19:27:27.546Z,9.10
2022-10-30T19:30:00.373Z,9.07
2022-10-30T19:32:43.199Z,7.75
2022-10-30T19:36:09.315Z,8.93
2022-10-30T19:39:07.592Z,9.05
2022-10-30T19:41:43.902Z,8.55
2022-10-30T19:44:16.262Z,10.95
2022-10-30T19:46:48.511Z,10.73
2022-10-30T19:49:24.386Z,10.73
2022-10-30T19:51:57.122Z,8.15
2022-10-30T19:54:29.932Z,7.40
2022-10-30T19:57:03.061Z,9.85
2022-10-30T19:59:36.767Z,8.13
2022-10-30T20:02:11.343Z,9.00
2022-10-30T20:04:43.989Z,9.05
2022-10-30T20:07:16.866Z,13.63
2022-10-30T20:09:49.325Z,9.10
2022-10-30T20:12:24.009Z,10.20
2022-10-30T20:14:56.912Z,9.02
2022-10-30T20:17:29.385Z,7.40
2022-10-30T20:20:01.894Z,7.32
2022-10-30T20:22:34.490Z,8.35
2022-10-30T20:25:07.247Z,8.15
2022-10-30T20:27:41.632Z,7.40
2022-10-30T20:30:19.916Z,11.35
2022-10-30T20:32:53.720Z,7.63
2022-10-30T20:35:26.758Z,8.13
2022-10-30T20:38:02.845Z,6.97
2022-10-30T20:40:36.083Z,7.30
2022-10-30T20:43:28.468Z,9.50
2022-10-30T20:46:07.764Z,8.25
2022-10-30T20:48:42.040Z,7.22
2022-10-30T20:51:15.838Z,6.97
2022-10-30T20:53:49.700Z,8.68
2022-10-30T20:56:22.818Z,6.82
2022-10-30T20:58:56.289Z,7.55
2022-10-30T21:01:29.387Z,6.80
2022-10-30T21:04:03.041Z,7.00
2022-10-30T21:06:36.409Z,5.93
2022-10-30T21:09:09.583Z,9.85
2022-10-30T21:11:41.689Z,6.43
2022-10-30T21:14:19.029Z,6.80
2022-10-30T21:16:51.350Z,6.70
2022-10-30T21:19:23.645Z,7.00
2022-10-30T21:22:20.108Z,6.80
2022-10-30T21:24:52.128Z,8.77
2022-10-30T21:27:24.280Z,10.38
2022-10-30T21:29:56.296Z,7.00
2022-10-30T21:32:31.434Z,15.45
2022-10-30T21:35:03.706Z,6.65
2022-10-30T21:37:36.948Z,6.50
2022-10-30T21:40:09.797Z,6.88
2022-10-30T21:42:42.571Z,7.28
2022-10-30T21:45:18.188Z,7.95
2022-10-30T21:47:53.407Z,7.68
2022-10-30T21:50:25.620Z,5.72
2022-10-30T21:52:57.927Z,6.85
2022-10-30T21:55:30.945Z,7.57
2022-10-30T21:58:03.119Z,7.22
2022-10-30T22:00:35.505Z,7.68
2022-10-30T22:03:10.586Z,6.93
2022-10-30T22:05:42.622Z,6.60
2022-10-30T22:08:17.242Z,6.18
2022-10-30T22:10:50.117Z,6.47
2022-10-30T22:13:22.489Z,5.63
2022-10-30T22:15:55.323Z,6.07
2022-10-30T22:18:27.731Z,6.13
2022-10-30T22:21:08.839Z,5.55
2022-10-30T22:23:42.714Z,7.97
2022-10-30T22:26:20.768Z,5.35
2022-10-30T22:28:58.976Z,4.97
2022-10-30T22:31:31.494Z,4.93
2022-10-30T22:34:03.913Z,6.18
2022-10-30T22:36:36.152Z,5.30
2022-10-30T22:39:12.599Z,5.10
2022-10-30T22:41:45.278Z,6.07
2022-10-30T22:44:20.171Z,8.05
2022-10-30T22:46:53.786Z,5.20
2022-10-30T22:49:25.864Z,5.38
2022-10-30T22:51:58.102Z,4.43
2022-10-30T22:54:39.323Z,6.13
2022-10-30T22:57:11.312Z,5.25
2022-10-30T22:59:43.405Z,4.90
2022-10-30T23:02:15.505Z,5.40
2022-10-30T23:04:47.747Z,5.63
2022-10-30T23:07:19.837Z,5.25
2022-10-30T23:09:51.819Z,5.32
2022-10-30T23:12:23.942Z,5.75
2022-10-30T23:14:58.620Z,4.50
2022-10-30T23:17:30.664Z,8.45
2022-10-30T23:20:02.826Z,6.15
2022-10-30T23:22:37.153Z,10.02
2022-10-30T23:25:09.719Z,10.50
2022-10-30T23:27:41.810Z,5.25
2022-10-30T23:30:14.099Z,5.55
2022-10-30T23:32:48.393Z,5.57
2022-10-30T23:35:20.537Z,7.07
2022-10-30T23:37:53.591Z,6.32
2022-10-30T23:40:25.896Z,5.88
2022-10-30T23:42:58.451Z,6.63
2022-10-30T23:45:31.142Z,5.47
2022-10-30T23:48:03.320Z,7.93
2022-10-30T23:50:36.474Z,7.90
2022-10-30T23:53:08.628Z,6.30
2022-10-30T23:55:40.743Z,5.43
2022-10-30T23:58:21.512Z,11.23
